Time;durP1;ratioP1;P1;durP2;ratioP2;P2;SDS_P1;SDS_P2;PMS_P1;PMS_P2;Temp;Humidity;BMP_temperature;BMP_pressure;BME280_temperature;BME280_humidity;BME280_pressure;Samples;Min_cycle;Max_cycle;Signal;HPM_P1;HPM_P2
2023/05/10 00:01:27;;;;;;;10.57;5.90;;;;;;;10.76;100.00;100351.81;5035711;28;20208;-65
2023/05/10 00:03:53;;;;;;;9.98;6.65;;;;;;;10.75;100.00;100354.59;5036365;28;20130;-68
2023/05/10 00:06:18;;;;;;;10.95;7.47;;;;;;;10.80;100.00;100349.69;5035920;28;20091;-68
2023/05/10 00:08:45;;;;;;;9.50;6.43;;;;;;;10.65;100.00;100351.19;5036620;28;20041;-69
2023/05/10 00:11:10;;;;;;;12.05;7.93;;;;;;;10.65;100.00;100349.38;5035043;28;20040;-68
2023/05/10 00:13:36;;;;;;;11.65;7.18;;;;;;;10.61;100.00;100353.28;5035733;28;20224;-69
2023/05/10 00:16:01;;;;;;;15.40;7.65;;;;;;;10.72;100.00;100355.75;5037540;28;20042;-64
2023/05/10 00:18:27;;;;;;;12.70;6.82;;;;;;;10.72;100.00;100352.25;5035966;28;20053;-68
2023/05/10 00:20:52;;;;;;;10.38;7.00;;;;;;;10.65;100.00;100346.72;5032417;28;20322;-69
2023/05/10 00:23:18;;;;;;;9.73;6.53;;;;;;;10.81;100.00;100354.84;5036090;28;20080;-69
2023/05/10 00:25:43;;;;;;;7.72;5.68;;;;;;;10.93;100.00;100349.34;5035529;28;20190;-68
2023/05/10 00:28:08;;;;;;;8.05;4.60;;;;;;;10.69;100.00;100345.44;5036012;28;20034;-66
2023/05/10 00:30:34;;;;;;;10.93;5.63;;;;;;;10.42;100.00;100318.97;5035706;28;20025;-64
2023/05/10 00:33:00;;;;;;;7.15;5.38;;;;;;;10.67;100.00;100349.22;5035688;28;20291;-69
2023/05/10 00:35:25;;;;;;;7.40;4.47;;;;;;;10.63;100.00;100346.03;5036460;28;20099;-65
2023/05/10 00:37:51;;;;;;;10.57;4.95;;;;;;;10.64;100.00;100342.41;5036826;28;20219;-68
2023/05/10 00:40:16;;;;;;;10.30;5.10;;;;;;;10.61;100.00;100347.16;5036309;28;20136;-68
2023/05/10 00:42:42;;;;;;;10.80;5.60;;;;;;;10.64;100.00;100337.09;5035518;28;20211;-65
2023/05/10 00:45:08;;;;;;;7.18;5.05;;;;;;;10.67;100.00;100336.81;5034577;28;20045;-68
2023/05/10 00:47:34;;;;;;;7.25;4.60;;;;;;;10.58;100.00;100340.34;5035768;28;20045;-65
2023/05/10 00:50:00;;;;;;;9.93;5.85;;;;;;;10.50;100.00;100334.94;5034871;28;20065;-68
2023/05/10 00:52:29;;;;;;;9.88;5.70;;;;;;;10.46;100.00;100345.00;5035333;28;20353;-68
2023/05/10 00:54:55;;;;;;;7.00;6.18;;;;;;;10.38;100.00;100336.94;5033697;28;20040;-65
2023/05/10 00:57:21;;;;;;;13.23;7.03;;;;;;;10.37;100.00;100334.44;5034860;28;20029;-68
2023/05/10 00:59:48;;;;;;;12.43;6.28;;;;;;;10.44;100.00;100330.25;5035309;28;20348;-65
2023/05/10 01:02:14;;;;;;;14.18;7.05;;;;;;;10.44;100.00;100328.44;5035730;28;20355;-65
2023/05/10 01:04:40;;;;;;;10.77;7.07;;;;;;;10.40;100.00;100320.91;5035180;28;20037;-65
2023/05/10 01:07:06;;;;;;;11.35;6.72;;;;;;;10.29;100.00;100321.91;5034000;28;20088;-68
2023/05/10 01:09:32;;;;;;;11.40;6.93;;;;;;;10.34;100.00;100335.56;5034496;28;20274;-65
2023/05/10 01:11:59;;;;;;;12.32;7.53;;;;;;;10.28;100.00;100325.53;5033387;28;20049;-65
2023/05/10 01:14:25;;;;;;;10.10;6.55;;;;;;;10.28;100.00;100325.53;5033836;28;20239;-68
2023/05/10 01:16:53;;;;;;;13.00;7.35;;;;;;;10.30;100.00;100328.88;5033824;28;20045;-68
2023/05/10 01:19:30;;;;;;;12.90;6.97;;;;;;;10.21;100.00;100335.06;5029646;28;20052;-64
2023/05/10 01:22:25;;;;;;;9.93;5.70;;;;;;;10.18;100.00;100336.13;5032851;28;20037;-65
2023/05/10 01:25:19;;;;;;;9.98;5.40;;;;;;;10.13;100.00;100341.03;5032014;28;20037;-65
2023/05/10 01:28:05;;;;;;;11.68;5.57;;;;;;;10.09;100.00;100334.38;5032408;28;20367;-64
2023/05/10 01:30:58;;;;;;;12.30;5.65;;;;;;;10.09;100.00;100337.00;5030770;28;20067;-68
2023/05/10 01:33:30;;;;;;;11.90;6.80;;;;;;;10.14;100.00;100323.34;5033555;28;20284;-64
2023/05/10 01:36:18;;;;;;;9.05;5.18;;;;;;;10.16;100.00;100329.31;5034230;28;20370;-64
2023/05/10 01:38:57;;;;;;;11.15;5.82;;;;;;;10.11;100.00;100328.94;5034488;28;20037;-64
2023/05/10 01:41:41;;;;;;;10.10;6.03;;;;;;;10.07;100.00;100330.19;5034610;28;20030;-64
2023/05/10 01:44:11;;;;;;;8.73;5.82;;;;;;;10.05;100.00;100337.44;5033680;28;20327;-69
2023/05/10 01:46:39;;;;;;;11.18;5.97;;;;;;;9.91;100.00;100299.06;5032332;28;20096;-65
2023/05/10 01:49:13;;;;;;;12.30;6.15;;;;;;;10.19;100.00;100327.22;5033494;28;20049;-65
2023/05/10 01:51:44;;;;;;;9.68;6.68;;;;;;;10.07;100.00;100322.25;5029434;28;20025;-69
2023/05/10 01:54:13;;;;;;;12.23;6.53;;;;;;;10.22;100.00;100337.56;5033639;28;20045;-65
2023/05/10 01:56:41;;;;;;;9.32;5.57;;;;;;;10.08;100.00;100329.22;5033064;28;20057;-65
2023/05/10 01:59:15;;;;;;;9.32;5.75;;;;;;;10.19;100.00;100340.47;5032497;28;20045;-69
2023/05/10 02:01:42;;;;;;;10.43;5.82;;;;;;;9.97;100.00;100338.16;5031728;28;20461;-69
2023/05/10 02:04:09;;;;;;;12.05;6.68;;;;;;;10.00;100.00;100339.69;5033620;28;20041;-69
2023/05/10 02:06:36;;;;;;;9.27;5.75;;;;;;;9.91;100.00;100342.22;5033140;28;20041;-68
2023/05/10 02:09:02;;;;;;;10.60;6.75;;;;;;;10.03;100.00;100334.09;5034439;28;20045;-65
2023/05/10 02:11:30;;;;;;;8.75;5.90;;;;;;;10.01;100.00;100336.06;5032927;28;20037;-69
2023/05/10 02:13:57;;;;;;;8.65;5.90;;;;;;;9.99;100.00;100332.72;5032011;28;20041;-69
2023/05/10 02:16:26;;;;;;;9.60;5.82;;;;;;;9.95;100.00;100334.00;5033524;28;20025;-68
2023/05/10 02:18:52;;;;;;;13.43;6.80;;;;;;;9.94;100.00;100341.09;5031296;28;20049;-69
2023/05/10 02:21:20;;;;;;;11.63;6.20;;;;;;;9.95;100.00;100334.81;5030500;28;20811;-65
2023/05/10 02:23:48;;;;;;;10.10;6.03;;;;;;;9.93;100.00;100336.78;5032678;28;20230;-69
2023/05/10 02:26:15;;;;;;;12.02;6.70;;;;;;;9.93;100.00;100339.44;5032501;28;20068;-69
2023/05/10 02:28:42;;;;;;;8.60;6.25;;;;;;;9.91;100.00;100329.00;5033963;28;20311;-64
2023/05/10 02:31:10;;;;;;;10.35;6.35;;;;;;;9.90;100.00;100324.69;5032925;28;20040;-65
2023/05/10 02:33:38;;;;;;;10.27;6.22;;;;;;;9.65;100.00;100303.31;5034301;28;20052;-65
2023/05/10 02:36:05;;;;;;;9.13;6.18;;;;;;;9.90;100.00;100334.41;5032429;28;20052;-69
2023/05/10 02:38:32;;;;;;;12.65;6.88;;;;;;;9.99;100.00;100324.78;5034464;28;20034;-69
2023/05/10 02:40:59;;;;;;;13.75;6.55;;;;;;;9.97;100.00;100332.03;5031577;28;20045;-65
2023/05/10 02:43:26;;;;;;;17.00;7.20;;;;;;;9.93;100.00;100336.78;5032844;28;20033;-64
2023/05/10 02:45:51;;;;;;;11.10;6.75;;;;;;;10.02;100.00;100337.72;5031796;28;20097;-65
2023/05/10 02:48:17;;;;;;;9.07;6.38;;;;;;;9.93;100.00;100336.78;5033210;28;20033;-68
2023/05/10 02:50:45;;;;;;;11.45;7.15;;;;;;;10.04;100.00;100344.53;5033891;28;20030;-67
2023/05/10 02:53:15;;;;;;;12.80;7.20;;;;;;;10.01;100.00;100333.41;5034720;28;20067;-69
2023/05/10 02:55:44;;;;;;;13.07;7.68;;;;;;;10.06;100.00;100326.72;5032727;28;20114;-69
2023/05/10 02:58:10;;;;;;;10.40;6.78;;;;;;;10.10;100.00;100332.56;5032255;28;20324;-68
2023/05/10 03:00:36;;;;;;;13.15;7.32;;;;;;;10.13;100.00;100332.25;5033458;28;20037;-65
2023/05/10 03:03:01;;;;;;;10.18;6.72;;;;;;;10.08;100.00;100326.56;5033864;28;20385;-69
2023/05/10 03:05:27;;;;;;;11.95;7.70;;;;;;;10.00;100.00;100332.59;5032141;28;20037;-65
2023/05/10 03:07:54;;;;;;;11.68;6.80;;;;;;;9.91;100.00;100320.22;5033027;28;20041;-65
2023/05/10 03:10:26;;;;;;;14.57;7.57;;;;;;;10.01;100.00;100326.31;5032466;28;20030;-68
2023/05/10 03:13:16;;;;;;;12.07;6.82;;;;;;;10.01;100.00;100334.25;5032315;28;20235;-65
2023/05/10 03:15:57;;;;;;;16.55;7.22;;;;;;;10.12;100.00;100335.88;5026177;28;20332;-65
2023/05/10 03:18:29;;;;;;;11.40;7.00;;;;;;;10.28;100.00;100335.31;5032586;28;20360;-68
2023/05/10 03:21:02;;;;;;;13.75;7.07;;;;;;;10.00;100.00;100337.03;5028584;28;20033;-68
2023/05/10 03:23:35;;;;;;;11.90;7.85;;;;;;;10.09;100.00;100338.81;5032598;28;20260;-69
2023/05/10 03:26:01;;;;;;;12.77;8.32;;;;;;;10.15;100.00;100340.88;5033234;28;20041;-64
2023/05/10 03:28:27;;;;;;;12.13;7.28;;;;;;;10.18;100.00;100335.31;5036546;28;20043;-68
2023/05/10 03:30:54;;;;;;;12.85;7.82;;;;;;;10.28;100.00;100333.50;5031970;28;20021;-68
2023/05/10 03:33:20;;;;;;;10.30;7.18;;;;;;;10.20;100.00;100347.44;5035880;28;20082;-69
2023/05/10 03:35:45;;;;;;;12.80;6.72;;;;;;;10.21;100.00;100349.13;5036605;28;20037;-65
2023/05/10 03:38:14;;;;;;;11.90;7.57;;;;;;;10.11;100.00;100348.28;5036876;28;20053;-68
2023/05/10 03:40:40;;;;;;;10.70;7.05;;;;;;;10.10;100.00;100351.06;5036537;28;20029;-66
2023/05/10 03:43:05;;;;;;;10.10;5.63;;;;;;;10.05;100.00;100350.66;5036081;28;20208;-65
2023/05/10 03:45:31;;;;;;;11.15;6.45;;;;;;;10.03;100.00;100355.28;5035633;28;20021;-69
2023/05/10 03:47:57;;;;;;;12.02;7.38;;;;;;;10.21;100.00;100353.56;5036203;28;20184;-69
2023/05/10 03:50:23;;;;;;;12.13;6.80;;;;;;;10.26;100.00;100351.31;5036701;28;20041;-65
2023/05/10 03:52:49;;;;;;;9.98;6.93;;;;;;;10.19;100.00;100358.16;5036463;28;20041;-68
2023/05/10 03:55:14;;;;;;;10.52;7.53;;;;;;;10.11;100.00;100353.56;5035895;28;20407;-64
2023/05/10 03:57:40;;;;;;;13.07;8.18;;;;;;;10.17;100.00;100352.16;5034896;28;20048;-66
2023/05/10 04:00:06;;;;;;;14.98;6.53;;;;;;;10.21;100.00;100367.63;5035727;28;20030;-68
2023/05/10 04:02:31;;;;;;;11.52;7.60;;;;;;;10.18;100.00;100369.72;5036572;28;20109;-65
2023/05/10 04:04:57;;;;;;;11.57;7.22;;;;;;;10.28;100.00;100369.72;5036008;28;20094;-69
2023/05/10 04:07:22;;;;;;;15.00;7.28;;;;;;;10.35;100.00;100368.16;5034591;28;20041;-69
2023/05/10 04:09:48;;;;;;;12.05;7.60;;;;;;;10.39;100.00;100382.75;5040204;28;20025;-69
2023/05/10 04:12:13;;;;;;;13.50;7.05;;;;;;;10.51;100.00;100377.16;5039819;28;20063;-65
2023/05/10 04:14:39;;;;;;;10.80;6.93;;;;;;;10.37;100.00;100380.25;5039513;28;20102;-68
2023/05/10 04:17:05;;;;;;;14.02;7.35;;;;;;;10.54;100.00;100387.47;5039852;28;20045;-68
2023/05/10 04:19:31;;;;;;;13.02;7.95;;;;;;;10.49;100.00;100391.53;5038524;28;20049;-68
2023/05/10 04:21:57;;;;;;;10.85;6.88;;;;;;;10.47;100.00;100385.53;5038377;28;20239;-68
2023/05/10 04:24:22;;;;;;;11.52;6.47;;;;;;;10.37;100.00;100388.19;5036453;28;20033;-68
2023/05/10 04:26:47;;;;;;;10.90;6.53;;;;;;;10.50;100.00;100382.59;5038080;28;20044;-65
2023/05/10 04:29:13;;;;;;;10.63;6.45;;;;;;;10.37;100.00;100384.72;5038592;28;20045;-69
2023/05/10 04:31:38;;;;;;;11.45;6.72;;;;;;;10.33;100.00;100381.53;5038133;28;20213;-66
2023/05/10 04:34:04;;;;;;;12.05;6.55;;;;;;;10.33;100.00;100383.34;5038667;28;20067;-65
2023/05/10 04:36:29;;;;;;;8.50;5.53;;;;;;;10.24;100.00;100390.34;5037975;28;20030;-68
2023/05/10 04:38:55;;;;;;;9.45;6.13;;;;;;;10.42;100.00;100396.56;5038928;28;20508;-69
2023/05/10 04:41:20;;;;;;;10.40;6.20;;;;;;;10.51;100.00;100400.16;5038432;28;20033;-68
2023/05/10 04:43:46;;;;;;;11.82;6.00;;;;;;;10.38;100.00;100389.88;5038701;28;20033;-69
2023/05/10 04:46:12;;;;;;;10.35;5.85;;;;;;;10.32;100.00;100392.25;5038400;28;20029;-68
2023/05/10 04:48:37;;;;;;;7.68;5.50;;;;;;;10.48;100.00;100392.50;5039007;28;20071;-69
2023/05/10 04:51:03;;;;;;;12.20;6.45;;;;;;;10.53;100.00;100384.97;5039063;28;20227;-65
2023/05/10 04:53:29;;;;;;;13.35;6.68;;;;;;;10.54;100.00;100387.47;5038695;28;20041;-65
2023/05/10 04:55:54;;;;;;;12.63;5.63;;;;;;;10.47;100.00;100399.63;5039523;28;20029;-68
2023/05/10 04:58:20;;;;;;;10.95;5.97;;;;;;;10.65;100.00;100396.19;5039027;28;20053;-69
2023/05/10 05:00:46;;;;;;;10.93;6.15;;;;;;;10.70;100.00;100389.47;5038682;28;20040;-65
2023/05/10 05:03:11;;;;;;;8.55;5.47;;;;;;;10.73;100.00;100391.84;5038498;28;20046;-69
2023/05/10 05:05:37;;;;;;;11.02;5.53;;;;;;;10.85;100.00;100395.13;5038517;28;20079;-69
2023/05/10 05:08:02;;;;;;;8.93;5.85;;;;;;;10.65;100.00;100402.34;5037953;28;20239;-69
2023/05/10 05:10:28;;;;;;;9.02;5.70;;;;;;;10.68;100.00;100398.56;5031448;28;20045;-68
2023/05/10 05:12:53;;;;;;;11.27;5.10;;;;;;;10.73;100.00;100410.38;5038994;28;20053;-68
2023/05/10 05:15:19;;;;;;;9.60;4.85;;;;;;;10.68;100.00;100403.84;5038554;28;20036;-69
2023/05/10 05:17:44;;;;;;;7.90;5.55;;;;;;;10.73;100.00;100404.25;4994835;28;1164957;-68
2023/05/10 05:20:10;;;;;;;10.18;5.78;;;;;;;10.70;100.00;100404.53;5033625;28;20029;-64
2023/05/10 05:22:37;;;;;;;8.23;6.15;;;;;;;10.67;100.00;100402.19;5033995;28;20572;-69
2023/05/10 05:25:03;;;;;;;9.13;5.30;;;;;;;10.60;100.00;100403.75;5035579;28;20076;-68
2023/05/10 05:27:29;;;;;;;8.98;5.22;;;;;;;10.50;100.00;100394.03;5033455;28;20308;-65
2023/05/10 05:29:55;;;;;;;10.27;6.50;;;;;;;10.62;100.00;100384.09;5033882;28;20037;-65
2023/05/10 05:32:21;;;;;;;12.45;6.75;;;;;;;10.66;100.00;100396.06;5032830;28;20025;-64
2023/05/10 05:34:47;;;;;;;13.70;8.07;;;;;;;10.78;100.00;100388.75;5032569;28;20090;-65
2023/05/10 05:37:20;;;;;;;17.80;7.60;;;;;;;10.73;100.00;100396.31;5033241;28;20370;-69
2023/05/10 05:39:46;;;;;;;13.70;7.70;;;;;;;10.87;100.00;100387.84;5033077;28;20083;-65
2023/05/10 05:42:13;;;;;;;12.23;8.02;;;;;;;10.80;100.00;100381.47;5033985;28;20483;-68
2023/05/10 05:44:38;;;;;;;11.60;6.55;;;;;;;10.67;100.00;100394.25;5033521;28;20355;-66
2023/05/10 05:47:04;;;;;;;9.35;6.15;;;;;;;10.67;100.00;100400.38;5032428;28;20052;-64
2023/05/10 05:49:30;;;;;;;11.20;7.07;;;;;;;10.87;100.00;100401.09;5033053;28;20049;-69
2023/05/10 05:52:02;;;;;;;13.00;6.57;;;;;;;10.75;100.00;100391.69;5031600;28;20037;-64
2023/05/10 05:54:28;;;;;;;11.27;6.38;;;;;;;10.81;100.00;100404.34;5033127;28;20693;-65
2023/05/10 05:56:55;;;;;;;15.85;7.05;;;;;;;10.81;100.00;100407.00;5033216;28;20033;-65
2023/05/10 05:59:21;;;;;;;7.68;4.72;;;;;;;10.74;100.00;100417.34;5032772;28;20044;-65
2023/05/10 06:01:47;;;;;;;8.10;5.45;;;;;;;10.73;100.00;100422.78;5031477;28;20039;-69
2023/05/10 06:04:12;;;;;;;8.07;5.65;;;;;;;10.70;100.00;100410.66;5032752;28;20343;-68
2023/05/10 06:06:38;;;;;;;8.80;6.13;;;;;;;10.81;100.00;100421.06;5031208;28;20037;-69
2023/05/10 06:09:03;;;;;;;10.02;6.18;;;;;;;10.88;100.00;100405.44;5032744;28;20209;-68
2023/05/10 06:11:28;;;;;;;6.97;5.72;;;;;;;11.15;100.00;100415.16;5030911;28;20037;-64
2023/05/10 06:13:54;;;;;;;6.97;4.80;;;;;;;11.07;100.00;100415.06;5032415;28;20029;-65
2023/05/10 06:16:19;;;;;;;8.27;5.88;;;;;;;11.14;100.00;100427.59;5031286;28;20244;-68
2023/05/10 06:18:45;;;;;;;10.52;6.20;;;;;;;11.05;100.00;100433.78;5032155;28;20419;-69
2023/05/10 06:21:10;;;;;;;8.20;6.00;;;;;;;11.07;100.00;100417.72;5030804;28;20123;-64
2023/05/10 06:23:36;;;;;;;8.63;6.38;;;;;;;11.20;100.00;100426.16;5031228;28;20029;-68
2023/05/10 06:26:01;;;;;;;8.82;6.82;;;;;;;11.35;100.00;100421.16;5032577;28;20037;-68
2023/05/10 06:28:27;;;;;;;9.20;5.97;;;;;;;11.52;100.00;100429.16;5031060;28;20227;-68
2023/05/10 06:30:52;;;;;;;8.27;5.20;;;;;;;11.66;100.00;100443.72;5031334;28;20205;-68
2023/05/10 06:33:18;;;;;;;7.38;4.80;;;;;;;11.61;100.00;100418.63;5032621;28;20316;-66
2023/05/10 06:35:43;;;;;;;13.50;6.38;;;;;;;11.60;100.00;100432.88;5033601;28;20025;-65
2023/05/10 06:38:09;;;;;;;6.57;5.10;;;;;;;11.81;100.00;100426.31;5032157;28;20042;-64
2023/05/10 06:40:34;;;;;;;8.70;5.30;;;;;;;11.92;100.00;100430.53;5031615;28;20060;-69
2023/05/10 06:43:00;;;;;;;8.63;5.13;;;;;;;11.93;100.00;100432.19;5031674;28;20047;-69
2023/05/10 06:45:25;;;;;;;9.25;6.03;;;;;;;11.72;100.00;100415.75;5030629;28;20038;-68
2023/05/10 06:47:50;;;;;;;5.50;4.22;;;;;;;11.49;100.00;100424.16;5032202;28;20377;-64
2023/05/10 06:50:16;;;;;;;10.43;4.93;;;;;;;11.48;100.00;100425.16;5030752;28;20068;-64
2023/05/10 06:52:42;;;;;;;7.90;3.95;;;;;;;11.43;100.00;100422.09;5031822;28;20268;-68
2023/05/10 06:55:08;;;;;;;7.78;5.60;;;;;;;11.65;100.00;100428.78;5030561;28;20358;-65
2023/05/10 06:57:34;;;;;;;7.18;4.53;;;;;;;11.61;100.00;100427.41;5031393;28;20044;-68
2023/05/10 06:59:59;;;;;;;7.30;4.85;;;;;;;11.78;100.00;100426.59;5029696;28;20041;-65
2023/05/10 07:02:25;;;;;;;7.72;5.07;;;;;;;11.85;100.00;100433.94;5034633;28;20076;-69
2023/05/10 07:04:51;;;;;;;6.95;5.03;;;;;;;11.78;100.00;100439.88;5029926;28;20037;-68
2023/05/10 07:07:17;;;;;;;7.70;5.40;;;;;;;11.93;100.00;100423.41;5030453;28;20063;-69
2023/05/10 07:09:42;;;;;;;6.65;4.35;;;;;;;11.93;100.00;100420.75;5031982;28;20033;-65
2023/05/10 07:12:08;;;;;;;6.57;4.45;;;;;;;12.01;100.00;100421.66;5030742;28;20037;-64
2023/05/10 07:14:33;;;;;;;7.32;3.30;;;;;;;11.81;100.00;100428.94;5030890;28;20038;-68
2023/05/10 07:16:58;;;;;;;7.40;4.32;;;;;;;11.91;100.00;100431.53;5030731;28;20324;-68
2023/05/10 07:19:24;;;;;;;6.00;3.42;;;;;;;11.86;100.00;100430.31;5031604;28;20049;-68
2023/05/10 07:21:50;;;;;;;7.22;3.95;;;;;;;11.96;100.00;100423.94;5031360;28;20041;-65
2023/05/10 07:24:16;;;;;;;6.05;4.05;;;;;;;11.96;100.00;100431.06;5032113;28;20313;-65
2023/05/10 07:26:41;;;;;;;7.38;4.07;;;;;;;11.92;100.00;100430.53;5031515;28;20494;-69
2023/05/10 07:29:06;;;;;;;6.88;4.97;;;;;;;12.03;100.00;100427.63;5031263;28;20060;-69
2023/05/10 07:31:32;;;;;;;7.20;5.38;;;;;;;12.34;100.00;100433.31;5031419;28;20327;-65
2023/05/10 07:33:57;;;;;;;5.95;4.43;;;;;;;12.53;100.00;100424.31;5033310;28;20045;-69
2023/05/10 07:36:23;;;;;;;7.68;4.47;;;;;;;12.50;100.00;100429.13;5031251;28;20044;-68
2023/05/10 07:38:49;;;;;;;6.43;4.10;;;;;;;12.49;100.00;100432.75;5031575;28;20021;-64
2023/05/10 07:41:14;;;;;;;9.38;3.95;;;;;;;12.66;100.00;100426.53;5030455;28;20033;-69
2023/05/10 07:43:40;;;;;;;7.75;4.00;;;;;;;12.76;100.00;100430.75;5031555;28;20036;-68
2023/05/10 07:46:05;;;;;;;6.90;4.80;;;;;;;12.89;100.00;100434.78;5029745;28;20039;-65
2023/05/10 07:48:31;;;;;;;5.78;4.10;;;;;;;12.87;100.00;100434.94;5030407;28;20033;-64
2023/05/10 07:50:56;;;;;;;5.55;3.60;;;;;;;12.82;98.20;100423.97;5030580;28;20227;-65
2023/05/10 07:53:22;;;;;;;4.78;3.08;;;;;;;12.67;97.81;100439.66;5030345;28;20037;-64
2023/05/10 07:55:54;;;;;;;4.40;3.17;;;;;;;12.55;100.00;100438.28;5030496;28;20407;-64
2023/05/10 07:58:19;;;;;;;4.43;3.40;;;;;;;12.63;98.08;100440.16;5029836;28;20243;-65
2023/05/10 08:00:45;;;;;;;5.13;3.65;;;;;;;12.74;96.26;100440.69;5031065;28;20045;-68
2023/05/10 08:03:10;;;;;;;4.60;3.85;;;;;;;12.92;100.00;100443.28;5030196;28;20030;-65
2023/05/10 08:05:36;;;;;;;8.32;4.28;;;;;;;12.93;100.00;100439.63;5030999;28;20392;-65
2023/05/10 08:08:01;;;;;;;7.85;4.63;;;;;;;13.01;100.00;100447.63;5029573;28;20034;-65
2023/05/10 08:10:26;;;;;;;5.63;3.85;;;;;;;13.03;100.00;100450.97;5030914;28;20033;-67
2023/05/10 08:12:52;;;;;;;6.40;4.00;;;;;;;12.98;98.61;100452.44;5033166;28;20021;-65
2023/05/10 08:15:17;;;;;;;5.18;3.08;;;;;;;12.69;95.37;100443.00;5035337;28;20039;-68
2023/05/10 08:17:43;;;;;;;7.90;3.67;;;;;;;12.90;96.25;100447.91;5033712;28;20459;-65
2023/05/10 08:20:09;;;;;;;7.68;4.50;;;;;;;12.94;100.00;100456.41;5033658;28;20041;-68
2023/05/10 08:22:34;;;;;;;6.40;3.60;;;;;;;12.98;95.55;100449.78;5034609;28;20104;-69
2023/05/10 08:25:00;;;;;;;5.45;4.07;;;;;;;13.03;97.01;100450.13;5033741;28;20053;-66
2023/05/10 08:27:25;;;;;;;7.03;3.78;;;;;;;13.01;97.64;100458.25;5034871;28;20035;-65
2023/05/10 08:29:51;;;;;;;6.70;4.20;;;;;;;13.11;100.00;100456.31;5034172;28;20308;-69
2023/05/10 08:32:17;;;;;;;5.32;4.05;;;;;;;13.03;98.13;100461.59;5035111;28;20048;-65
2023/05/10 08:34:42;;;;;;;6.68;4.20;;;;;;;13.13;96.21;100456.13;5034261;28;20029;-69
2023/05/10 08:37:08;;;;;;;4.53;3.90;;;;;;;13.03;97.60;100453.63;5034979;28;20312;-65
2023/05/10 08:39:37;;;;;;;5.25;3.72;;;;;;;13.07;96.37;100459.44;5034151;28;20041;-68
2023/05/10 08:42:04;;;;;;;6.20;4.07;;;;;;;13.29;96.03;100460.72;5034218;28;20051;-66
2023/05/10 08:44:32;;;;;;;3.88;3.17;;;;;;;13.21;91.68;100458.03;5033412;28;20072;-68
2023/05/10 08:46:59;;;;;;;4.18;3.58;;;;;;;13.25;95.86;100468.19;5033605;28;20235;-69
2023/05/10 08:49:27;;;;;;;4.05;3.58;;;;;;;13.15;94.07;100458.63;5033825;28;20061;-65
2023/05/10 08:51:55;;;;;;;5.15;3.28;;;;;;;13.25;94.31;100459.38;5032525;28;20045;-69
2023/05/10 08:54:21;;;;;;;5.85;3.78;;;;;;;13.44;94.84;100464.41;5033561;28;20029;-69
2023/05/10 08:56:47;;;;;;;7.97;5.07;;;;;;;13.47;95.50;100444.63;5031842;28;20423;-69
2023/05/10 08:59:14;;;;;;;3.78;2.72;;;;;;;13.33;99.45;100456.72;5033777;28;20038;-65
2023/05/10 09:01:42;;;;;;;8.60;5.05;;;;;;;13.25;93.27;100457.53;5032148;28;20227;-65
2023/05/10 09:04:07;;;;;;;5.38;3.72;;;;;;;13.65;89.08;100464.81;5032400;28;20200;-64
2023/05/10 09:06:33;;;;;;;7.13;5.50;;;;;;;13.54;92.07;100462.47;5033790;28;20355;-69
2023/05/10 09:08:59;;;;;;;5.72;4.28;;;;;;;13.61;91.76;100462.63;5032523;28;20307;-69
2023/05/10 09:11:25;;;;;;;7.82;5.50;;;;;;;13.79;90.43;100463.31;5034278;28;20033;-65
2023/05/10 09:13:52;;;;;;;8.00;5.30;;;;;;;13.85;93.97;100457.34;5033195;28;20041;-65
2023/05/10 09:16:18;;;;;;;4.55;3.60;;;;;;;13.65;93.52;100446.19;5034452;28;20037;-68
2023/05/10 09:18:43;;;;;;;6.05;3.80;;;;;;;13.65;91.56;100453.31;5032183;28;20213;-69
2023/05/10 09:21:09;;;;;;;6.18;3.28;;;;;;;13.49;86.73;100446.13;5034390;28;20045;-68
2023/05/10 09:23:35;;;;;;;5.72;3.78;;;;;;;13.62;89.37;100446.50;5033986;28;20092;-68
2023/05/10 09:26:07;;;;;;;6.45;4.63;;;;;;;13.72;92.32;100455.16;5037172;28;20377;-65
2023/05/10 09:28:50;;;;;;;7.93;4.75;;;;;;;13.62;89.42;100443.00;5036794;28;20030;-64
2023/05/10 09:31:15;;;;;;;7.78;3.95;;;;;;;13.76;92.07;100436.19;5038395;28;20362;-69
2023/05/10 09:33:45;;;;;;;8.43;4.72;;;;;;;13.87;89.72;100428.72;5037710;28;20034;-65
2023/05/10 09:36:12;;;;;;;7.78;4.60;;;;;;;13.70;93.57;100429.72;5037594;28;20264;-65
2023/05/10 09:38:51;;;;;;;5.50;4.15;;;;;;;13.83;92.26;100426.56;5038333;28;20034;-68
2023/05/10 09:41:21;;;;;;;8.68;4.00;;;;;;;14.05;90.14;100429.38;5038408;28;20029;-66
2023/05/10 09:43:48;;;;;;;7.38;4.05;;;;;;;13.97;87.38;100424.06;5038524;28;20041;-65
2023/05/10 09:46:14;;;;;;;6.47;3.70;;;;;;;14.02;85.09;100421.72;5038500;28;20243;-65
2023/05/10 09:48:45;;;;;;;9.57;4.00;;;;;;;14.00;83.95;100417.56;5038729;28;20275;-64
2023/05/10 09:51:19;;;;;;;5.82;4.07;;;;;;;14.04;88.10;100418.88;5036511;28;20351;-63
2023/05/10 09:53:44;;;;;;;6.20;4.20;;;;;;;14.12;84.89;100426.03;5037711;28;20042;-64
2023/05/10 09:56:10;;;;;;;6.20;3.80;;;;;;;14.03;87.83;100411.91;5037008;28;20048;-63
2023/05/10 09:58:38;;;;;;;5.78;4.10;;;;;;;14.12;90.68;100415.38;5038129;28;20064;-64
2023/05/10 10:01:03;;;;;;;5.22;4.63;;;;;;;14.17;86.48;100411.22;5037595;28;20060;-64
2023/05/10 10:03:30;;;;;;;6.03;4.40;;;;;;;14.04;83.66;100398.41;5037697;28;20321;-63
2023/05/10 10:05:55;;;;;;;7.55;5.40;;;;;;;13.90;86.76;100409.75;5037435;28;20045;-64
2023/05/10 10:08:21;;;;;;;4.75;4.32;;;;;;;13.89;85.82;100402.75;5038274;28;20048;-63
2023/05/10 10:10:47;;;;;;;6.43;4.75;;;;;;;14.12;85.22;100405.56;5038402;28;20759;-64
2023/05/10 10:13:13;;;;;;;9.07;5.13;;;;;;;14.13;84.39;100401.06;5037334;28;20038;-64
2023/05/10 10:15:39;;;;;;;9.98;5.03;;;;;;;14.04;82.20;100393.09;5037121;28;20295;-64
2023/05/10 10:18:05;;;;;;;6.80;5.28;;;;;;;14.09;83.10;100392.59;5037442;28;20049;-63
2023/05/10 10:20:31;;;;;;;7.72;5.05;;;;;;;14.19;87.21;100387.91;5044518;28;20223;-63
2023/05/10 10:22:56;;;;;;;7.90;5.90;;;;;;;14.28;84.28;100386.88;5042378;28;20378;-63
2023/05/10 10:25:22;;;;;;;8.13;5.53;;;;;;;14.43;81.04;100395.03;5037801;28;20026;-64
2023/05/10 10:27:51;;;;;;;7.95;5.70;;;;;;;14.43;83.26;100383.53;5037031;28;20037;-64
2023/05/10 10:30:42;;;;;;;9.57;6.22;;;;;;;14.37;83.55;100388.53;5037742;28;20267;-62
2023/05/10 10:33:29;;;;;;;8.68;6.10;;;;;;;14.44;81.91;100382.53;5033295;28;20357;-64
2023/05/10 10:35:57;;;;;;;13.65;6.72;;;;;;;14.43;83.10;100386.22;5030195;28;20264;-64
2023/05/10 10:38:24;;;;;;;9.20;6.03;;;;;;;14.46;86.04;100378.72;5033107;28;20462;-64
2023/05/10 10:41:02;;;;;;;5.43;4.28;;;;;;;14.54;83.55;100383.19;5031716;28;20037;-63
2023/05/10 10:43:29;;;;;;;9.48;6.47;;;;;;;14.72;84.62;100377.63;5031845;28;20036;-63
2023/05/10 10:46:14;;;;;;;11.93;7.78;;;;;;;14.71;83.81;100382.13;5032995;28;20049;-63
2023/05/10 10:49:09;;;;;;;14.25;8.45;;;;;;;14.68;86.10;100379.81;5033204;28;20029;-64
2023/05/10 10:51:39;;;;;;;10.00;7.22;;;;;;;14.80;81.38;100374.94;5033012;28;20041;-63
2023/05/10 10:54:11;;;;;;;11.25;7.28;;;;;;;14.87;88.45;100371.41;5031743;28;20033;-63
2023/05/10 10:56:37;;;;;;;8.25;5.60;;;;;;;14.75;86.09;100383.47;5030248;28;20037;-63
2023/05/10 10:59:03;;;;;;;9.13;5.93;;;;;;;14.92;88.90;100378.88;5033391;28;20051;-63
2023/05/10 11:01:36;;;;;;;8.38;5.80;;;;;;;14.90;83.38;100387.06;5032077;28;20033;-64
2023/05/10 11:04:04;;;;;;;9.73;5.50;;;;;;;15.04;81.55;100377.47;5031348;28;20108;-63
2023/05/10 11:06:35;;;;;;;7.40;5.70;;;;;;;14.99;80.99;100374.50;5032556;28;20336;-63
2023/05/10 11:09:11;;;;;;;6.85;5.15;;;;;;;14.95;78.14;100382.03;5031925;28;20042;-63
2023/05/10 11:11:50;;;;;;;7.93;6.50;;;;;;;14.75;75.78;100369.28;5032147;28;20041;-63
2023/05/10 11:14:21;;;;;;;7.53;6.22;;;;;;;15.10;75.65;100367.94;5029743;28;20033;-64
2023/05/10 11:16:46;;;;;;;5.97;4.82;;;;;;;15.15;75.94;100365.56;5032783;28;20037;-63
2023/05/10 11:19:16;;;;;;;6.43;5.53;;;;;;;14.89;83.67;100360.56;5031050;28;20076;-63